sensor_id;sensor_type;location;lat;lon;timestamp;noise_LAeq;noise_LA_min;noise_LA_max;noise_LA01;noise_LA95
67300;Laerm;57658;51.436;5.980;2023-02-28T00:00:03;41.99;37.07;46.34;;
67300;Laerm;57658;51.436;5.980;2023-02-28T00:00:20;50.54;29.39;68.56;;
67300;Laerm;57658;51.436;5.980;2023-02-28T00:00:31;31.10;29.43;37.02;;
67300;Laerm;57658;51.436;5.980;2023-02-28T00:00:41;31.44;29.62;39.70;;
67300;Laerm;57658;51.436;5.980;2023-02-28T00:00:53;30.91;29.37;33.44;;
67300;Laerm;57658;51.436;5.980;2023-02-28T00:01:03;30.90;29.20;32.65;;
67300;Laerm;57658;51.436;5.980;2023-02-28T00:01:14;30.70;29.11;32.80;;
67300;Laerm;57658;51.436;5.980;2023-02-28T00:01:25;30.77;29.11;32.70;;
67300;Laerm;57658;51.436;5.980;2023-02-28T00:01:36;30.90;29.24;33.81;;
67300;Laerm;57658;51.436;5.980;2023-02-28T00:01:46;30.89;29.13;34.45;;
67300;Laerm;57658;51.436;5.980;2023-02-28T00:01:56;31.11;29.03;35.11;;
67300;Laerm;57658;51.436;5.980;2023-02-28T00:02:06;31.04;29.48;35.89;;
67300;Laerm;57658;51.436;5.980;2023-02-28T00:02:17;31.41;29.31;35.87;;
67300;Laerm;57658;51.436;5.980;2023-02-28T00:02:27;32.02;29.44;37.58;;
67300;Laerm;57658;51.436;5.980;2023-02-28T00:02:38;30.82;29.46;32.26;;
67300;Laerm;57658;51.436;5.980;2023-02-28T00:02:49;30.87;29.28;32.30;;
67300;Laerm;57658;51.436;5.980;2023-02-28T00:02:59;31.14;29.67;32.98;;
67300;Laerm;57658;51.436;5.980;2023-02-28T00:03:09;31.98;29.64;36.82;;
67300;Laerm;57658;51.436;5.980;2023-02-28T00:03:20;32.45;29.58;40.37;;
67300;Laerm;57658;51.436;5.980;2023-02-28T00:03:30;31.25;29.56;34.51;;
67300;Laerm;57658;51.436;5.980;2023-02-28T00:03:45;31.27;29.67;35.09;;
67300;Laerm;57658;51.436;5.980;2023-02-28T00:03:55;31.26;29.60;36.71;;
67300;Laerm;57658;51.436;5.980;2023-02-28T00:04:06;31.04;29.36;32.67;;
67300;Laerm;57658;51.436;5.980;2023-02-28T00:04:19;30.82;29.22;33.30;;
67300;Laerm;57658;51.436;5.980;2023-02-28T00:04:29;30.93;29.23;32.71;;
67300;Laerm;57658;51.436;5.980;2023-02-28T00:04:39;31.38;29.27;33.73;;
67300;Laerm;57658;51.436;5.980;2023-02-28T00:04:50;31.64;30.10;33.28;;
67300;Laerm;57658;51.436;5.980;2023-02-28T00:05:03;31.14;28.97;33.88;;
67300;Laerm;57658;51.436;5.980;2023-02-28T00:05:14;31.37;29.15;36.26;;
67300;Laerm;57658;51.436;5.980;2023-02-28T00:05:26;31.08;29.17;34.72;;
67300;Laerm;57658;51.436;5.980;2023-02-28T00:05:36;30.87;29.32;32.96;;
67300;Laerm;57658;51.436;5.980;2023-02-28T00:05:46;31.76;29.75;37.45;;
67300;Laerm;57658;51.436;5.980;2023-02-28T00:05:57;31.09;29.81;32.73;;
67300;Laerm;57658;51.436;5.980;2023-02-28T00:06:07;31.38;29.41;34.92;;
67300;Laerm;57658;51.436;5.980;2023-02-28T00:06:19;31.75;29.77;37.98;;
67300;Laerm;57658;51.436;5.980;2023-02-28T00:06:30;31.32;28.90;34.19;;
67300;Laerm;57658;51.436;5.980;2023-02-28T00:06:41;31.06;29.54;34.31;;
67300;Laerm;57658;51.436;5.980;2023-02-28T00:06:52;31.31;29.10;36.24;;
67300;Laerm;57658;51.436;5.980;2023-02-28T00:07:02;31.10;29.02;32.92;;
67300;Laerm;57658;51.436;5.980;2023-02-28T00:07:12;31.22;29.47;34.01;;
67300;Laerm;57658;51.436;5.980;2023-02-28T00:07:22;31.36;30.02;34.79;;
67300;Laerm;57658;51.436;5.980;2023-02-28T00:07:33;31.55;29.44;36.33;;
67300;Laerm;57658;51.436;5.980;2023-02-28T00:07:43;31.54;29.43;36.43;;
67300;Laerm;57658;51.436;5.980;2023-02-28T00:07:54;31.53;29.83;38.10;;
67300;Laerm;57658;51.436;5.980;2023-02-28T00:08:04;31.66;29.69;35.78;;
67300;Laerm;57658;51.436;5.980;2023-02-28T00:08:15;32.81;30.00;39.33;;
67300;Laerm;57658;51.436;5.980;2023-02-28T00:08:25;32.83;29.93;41.27;;
67300;Laerm;57658;51.436;5.980;2023-02-28T00:08:37;31.21;29.30;34.75;;
67300;Laerm;57658;51.436;5.980;2023-02-28T00:08:48;30.88;29.31;32.91;;
67300;Laerm;57658;51.436;5.980;2023-02-28T00:08:58;31.69;29.44;37.74;;
67300;Laerm;57658;51.436;5.980;2023-02-28T00:09:08;31.37;29.34;40.02;;
67300;Laerm;57658;51.436;5.980;2023-02-28T00:09:18;30.90;29.16;32.27;;
67300;Laerm;57658;51.436;5.980;2023-02-28T00:09:29;30.96;29.45;32.50;;
67300;Laerm;57658;51.436;5.980;2023-02-28T00:09:39;31.15;29.36;34.29;;
67300;Laerm;57658;51.436;5.980;2023-02-28T00:09:49;31.06;29.37;33.14;;
67300;Laerm;57658;51.436;5.980;2023-02-28T00:09:59;31.12;29.68;33.70;;
67300;Laerm;57658;51.436;5.980;2023-02-28T00:10:11;31.38;29.66;35.66;;
67300;Laerm;57658;51.436;5.980;2023-02-28T00:10:23;31.57;29.59;35.82;;
67300;Laerm;57658;51.436;5.980;2023-02-28T00:10:34;31.79;29.58;37.57;;
67300;Laerm;57658;51.436;5.980;2023-02-28T00:10:44;32.40;29.60;44.34;;
67300;Laerm;57658;51.436;5.980;2023-02-28T00:10:55;32.06;28.96;37.48;;
67300;Laerm;57658;51.436;5.980;2023-02-28T00:11:06;32.96;29.30;42.17;;
67300;Laerm;57658;51.436;5.980;2023-02-28T00:11:17;30.99;29.40;34.57;;
67300;Laerm;57658;51.436;5.980;2023-02-28T00:11:27;30.97;29.68;32.85;;
67300;Laerm;57658;51.436;5.980;2023-02-28T00:11:37;31.54;29.48;33.75;;
67300;Laerm;57658;51.436;5.980;2023-02-28T00:11:48;31.68;29.76;36.69;;
67300;Laerm;57658;51.436;5.980;2023-02-28T00:11:58;31.82;29.95;34.13;;
67300;Laerm;57658;51.436;5.980;2023-02-28T00:12:08;32.20;30.37;37.51;;
67300;Laerm;57658;51.436;5.980;2023-02-28T00:12:20;34.23;30.63;43.71;;
67300;Laerm;57658;51.436;5.980;2023-02-28T00:12:30;32.13;29.63;36.68;;
67300;Laerm;57658;51.436;5.980;2023-02-28T00:12:41;53.96;29.54;77.89;;
67300;Laerm;57658;51.436;5.980;2023-02-28T00:12:51;73.73;66.69;79.69;;
67300;Laerm;57658;51.436;5.980;2023-02-28T00:13:03;68.07;53.30;77.68;;
67300;Laerm;57658;51.436;5.980;2023-02-28T00:13:14;59.30;54.95;60.91;;
67300;Laerm;57658;51.436;5.980;2023-02-28T00:13:25;60.09;55.23;62.06;;
67300;Laerm;57658;51.436;5.980;2023-02-28T00:13:35;80.11;58.52;85.14;;
67300;Laerm;57658;51.436;5.980;2023-02-28T00:13:47;82.28;78.44;86.50;;
67300;Laerm;57658;51.436;5.980;2023-02-28T00:13:58;76.75;59.04;86.60;;
67300;Laerm;57658;51.436;5.980;2023-02-28T00:14:08;54.84;48.33;62.64;;
67300;Laerm;57658;51.436;5.980;2023-02-28T00:14:18;48.32;43.25;60.00;;
67300;Laerm;57658;51.436;5.980;2023-02-28T00:14:30;43.69;38.64;54.26;;
67300;Laerm;57658;51.436;5.980;2023-02-28T00:14:40;40.34;37.46;43.43;;
67300;Laerm;57658;51.436;5.980;2023-02-28T00:14:50;40.18;36.58;43.77;;
67300;Laerm;57658;51.436;5.980;2023-02-28T00:15:01;37.52;34.75;40.92;;
67300;Laerm;57658;51.436;5.980;2023-02-28T00:15:11;34.94;32.54;37.29;;
67300;Laerm;57658;51.436;5.980;2023-02-28T00:15:22;33.34;30.62;35.66;;
67300;Laerm;57658;51.436;5.980;2023-02-28T00:15:33;33.14;31.01;36.23;;
67300;Laerm;57658;51.436;5.980;2023-02-28T00:15:43;32.59;30.69;34.86;;
67300;Laerm;57658;51.436;5.980;2023-02-28T00:16:01;31.95;30.06;35.27;;
67300;Laerm;57658;51.436;5.980;2023-02-28T00:16:17;32.80;30.59;42.21;;
67300;Laerm;57658;51.436;5.980;2023-02-28T00:16:28;33.70;29.90;45.14;;
67300;Laerm;57658;51.436;5.980;2023-02-28T00:16:38;32.01;30.34;36.22;;
67300;Laerm;57658;51.436;5.980;2023-02-28T00:16:48;31.85;30.00;35.90;;
67300;Laerm;57658;51.436;5.980;2023-02-28T00:16:59;31.87;30.13;34.73;;
67300;Laerm;57658;51.436;5.980;2023-02-28T00:17:09;34.71;31.72;44.56;;
67300;Laerm;57658;51.436;5.980;2023-02-28T00:17:19;34.22;30.73;43.52;;
67300;Laerm;57658;51.436;5.980;2023-02-28T00:17:31;33.45;29.73;40.98;;
67300;Laerm;57658;51.436;5.980;2023-02-28T00:17:41;33.19;29.80;39.40;;
67300;Laerm;57658;51.436;5.980;2023-02-28T00:17:51;34.77;30.55;43.83;;
67300;Laerm;57658;51.436;5.980;2023-02-28T00:18:02;33.36;30.55;37.78;;
67300;Laerm;57658;51.436;5.980;2023-02-28T00:18:13;31.97;30.59;33.87;;
67300;Laerm;57658;51.436;5.980;2023-02-28T00:18:23;31.59;29.99;33.15;;
67300;Laerm;57658;51.436;5.980;2023-02-28T00:18:33;32.26;30.03;37.22;;
67300;Laerm;57658;51.436;5.980;2023-02-28T00:18:44;33.47;30.23;44.36;;
67300;Laerm;57658;51.436;5.980;2023-02-28T00:18:54;31.99;29.88;36.20;;
67300;Laerm;57658;51.436;5.980;2023-02-28T00:19:05;31.63;30.08;33.61;;
67300;Laerm;57658;51.436;5.980;2023-02-28T00:19:15;31.73;29.67;34.50;;
67300;Laerm;57658;51.436;5.980;2023-02-28T00:19:25;31.52;29.59;33.41;;
67300;Laerm;57658;51.436;5.980;2023-02-28T00:19:35;31.40;29.54;34.04;;
67300;Laerm;57658;51.436;5.980;2023-02-28T00:19:46;31.32;29.55;37.05;;
67300;Laerm;57658;51.436;5.980;2023-02-28T00:19:57;31.90;29.77;39.17;;
67300;Laerm;57658;51.436;5.980;2023-02-28T00:20:14;32.92;29.30;40.69;;
67300;Laerm;57658;51.436;5.980;2023-02-28T00:20:25;32.49;29.72;43.41;;
67300;Laerm;57658;51.436;5.980;2023-02-28T00:20:36;30.73;28.89;32.86;;
67300;Laerm;57658;51.436;5.980;2023-02-28T00:20:47;30.67;29.17;32.35;;
67300;Laerm;57658;51.436;5.980;2023-02-28T00:20:57;30.80;29.24;34.31;;
67300;Laerm;57658;51.436;5.980;2023-02-28T00:21:08;31.24;29.47;37.14;;
67300;Laerm;57658;51.436;5.980;2023-02-28T00:21:19;31.38;29.37;38.27;;
67300;Laerm;57658;51.436;5.980;2023-02-28T00:21:29;30.78;29.15;32.17;;
67300;Laerm;57658;51.436;5.980;2023-02-28T00:21:40;31.03;28.88;35.47;;
67300;Laerm;57658;51.436;5.980;2023-02-28T00:21:50;31.01;29.32;34.65;;
67300;Laerm;57658;51.436;5.980;2023-02-28T00:22:01;31.60;29.60;35.67;;
67300;Laerm;57658;51.436;5.980;2023-02-28T00:22:11;31.06;28.78;35.52;;
67300;Laerm;57658;51.436;5.980;2023-02-28T00:22:21;31.50;29.11;35.21;;
67300;Laerm;57658;51.436;5.980;2023-02-28T00:22:31;30.91;29.39;34.69;;
67300;Laerm;57658;51.436;5.980;2023-02-28T00:22:44;30.63;29.06;32.24;;
67300;Laerm;57658;51.436;5.980;2023-02-28T00:22:55;30.46;28.76;33.45;;
67300;Laerm;57658;51.436;5.980;2023-02-28T00:23:05;31.85;29.72;39.87;;
67300;Laerm;57658;51.436;5.980;2023-02-28T00:23:15;31.14;29.23;33.74;;
67300;Laerm;57658;51.436;5.980;2023-02-28T00:23:26;31.23;29.09;35.97;;
67300;Laerm;57658;51.436;5.980;2023-02-28T00:23:36;31.14;29.08;34.23;;
67300;Laerm;57658;51.436;5.980;2023-02-28T00:23:47;30.68;29.23;32.69;;
67300;Laerm;57658;51.436;5.980;2023-02-28T00:23:57;31.14;29.33;34.82;;
67300;Laerm;57658;51.436;5.980;2023-02-28T00:24:07;30.68;29.36;32.50;;
67300;Laerm;57658;51.436;5.980;2023-02-28T00:24:18;30.64;29.04;32.18;;
67300;Laerm;57658;51.436;5.980;2023-02-28T00:24:28;30.84;29.31;32.34;;
67300;Laerm;57658;51.436;5.980;2023-02-28T00:24:38;30.71;28.95;32.85;;
67300;Laerm;57658;51.436;5.980;2023-02-28T00:24:48;30.87;29.07;33.41;;
67300;Laerm;57658;51.436;5.980;2023-02-28T00:24:59;30.85;29.39;33.02;;
67300;Laerm;57658;51.436;5.980;2023-02-28T00:25:10;31.43;29.75;34.37;;
67300;Laerm;57658;51.436;5.980;2023-02-28T00:25:21;31.47;29.49;33.57;;
67300;Laerm;57658;51.436;5.980;2023-02-28T00:25:32;31.20;29.04;35.06;;
67300;Laerm;57658;51.436;5.980;2023-02-28T00:25:42;30.68;29.07;34.95;;
67300;Laerm;57658;51.436;5.980;2023-02-28T00:25:53;30.39;28.62;31.86;;
67300;Laerm;57658;51.436;5.980;2023-02-28T00:26:03;30.70;28.91;32.74;;
67300;Laerm;57658;51.436;5.980;2023-02-28T00:26:13;30.97;29.34;33.67;;
67300;Laerm;57658;51.436;5.980;2023-02-28T00:26:24;30.70;29.53;32.54;;
67300;Laerm;57658;51.436;5.980;2023-02-28T00:26:34;30.75;28.64;33.20;;
67300;Laerm;57658;51.436;5.980;2023-02-28T00:26:44;30.71;28.96;35.40;;
67300;Laerm;57658;51.436;5.980;2023-02-28T00:26:55;30.59;29.01;32.35;;
67300;Laerm;57658;51.436;5.980;2023-02-28T00:27:05;30.83;29.23;32.57;;
67300;Laerm;57658;51.436;5.980;2023-02-28T00:27:15;30.73;29.43;32.33;;
67300;Laerm;57658;51.436;5.980;2023-02-28T00:27:25;30.74;29.17;32.33;;
67300;Laerm;57658;51.436;5.980;2023-02-28T00:27:36;30.74;29.09;32.70;;
67300;Laerm;57658;51.436;5.980;2023-02-28T00:27:47;31.22;29.44;34.85;;
67300;Laerm;57658;51.436;5.980;2023-02-28T00:27:57;30.73;29.36;32.97;;
67300;Laerm;57658;51.436;5.980;2023-02-28T00:28:08;31.25;28.89;37.96;;
67300;Laerm;57658;51.436;5.980;2023-02-28T00:28:18;30.76;28.84;34.37;;
67300;Laerm;57658;51.436;5.980;2023-02-28T00:28:28;30.51;29.10;31.91;;
67300;Laerm;57658;51.436;5.980;2023-02-28T00:28:39;30.63;29.21;32.35;;
67300;Laerm;57658;51.436;5.980;2023-02-28T00:28:51;30.68;29.16;32.42;;
67300;Laerm;57658;51.436;5.980;2023-02-28T00:29:02;30.67;29.22;32.51;;
67300;Laerm;57658;51.436;5.980;2023-02-28T00:29:12;30.75;29.13;36.04;;
67300;Laerm;57658;51.436;5.980;2023-02-28T00:29:23;30.72;29.01;32.50;;
67300;Laerm;57658;51.436;5.980;2023-02-28T00:29:33;30.95;29.15;32.38;;
67300;Laerm;57658;51.436;5.980;2023-02-28T00:29:43;31.15;29.55;32.62;;
67300;Laerm;57658;51.436;5.980;2023-02-28T00:29:53;31.14;29.58;32.77;;
67300;Laerm;57658;51.436;5.980;2023-02-28T00:30:04;30.86;29.12;33.33;;
67300;Laerm;57658;51.436;5.980;2023-02-28T00:30:19;31.17;29.29;34.82;;
67300;Laerm;57658;51.436;5.980;2023-02-28T00:30:29;30.85;28.97;34.59;;
67300;Laerm;57658;51.436;5.980;2023-02-28T00:30:40;30.87;28.90;33.45;;
67300;Laerm;57658;51.436;5.980;2023-02-28T00:30:50;30.86;29.29;33.80;;
67300;Laerm;57658;51.436;5.980;2023-02-28T00:31:00;30.90;29.55;32.93;;
67300;Laerm;57658;51.436;5.980;2023-02-28T00:31:11;55.79;29.89;70.10;;
67300;Laerm;57658;51.436;5.980;2023-02-28T00:31:21;31.50;29.70;33.51;;
67300;Laerm;57658;51.436;5.980;2023-02-28T00:31:31;31.82;29.74;34.20;;
67300;Laerm;57658;51.436;5.980;2023-02-28T00:31:41;31.58;29.56;34.86;;
67300;Laerm;57658;51.436;5.980;2023-02-28T00:31:52;32.33;30.44;34.60;;
67300;Laerm;57658;51.436;5.980;2023-02-28T00:32:02;33.01;30.87;34.94;;
67300;Laerm;57658;51.436;5.980;2023-02-28T00:32:12;33.24;30.23;35.81;;
67300;Laerm;57658;51.436;5.980;2023-02-28T00:32:23;37.90;32.47;45.65;;
67300;Laerm;57658;51.436;5.980;2023-02-28T00:32:33;33.93;31.97;39.22;;
67300;Laerm;57658;51.436;5.980;2023-02-28T00:32:44;36.29;31.05;45.77;;
67300;Laerm;57658;51.436;5.980;2023-02-28T00:32:55;32.83;30.42;36.47;;
67300;Laerm;57658;51.436;5.980;2023-02-28T00:33:05;35.20;31.99;38.31;;
67300;Laerm;57658;51.436;5.980;2023-02-28T00:33:15;31.86;30.16;34.29;;
67300;Laerm;57658;51.436;5.980;2023-02-28T00:33:26;33.15;30.64;36.06;;
67300;Laerm;57658;51.436;5.980;2023-02-28T00:33:37;42.04;34.13;47.75;;
67300;Laerm;57658;51.436;5.980;2023-02-28T00:33:47;51.40;41.51;59.39;;
67300;Laerm;57658;51.436;5.980;2023-02-28T00:33:57;54.59;43.07;59.86;;
67300;Laerm;57658;51.436;5.980;2023-02-28T00:34:08;37.80;32.84;43.77;;
67300;Laerm;57658;51.436;5.980;2023-02-28T00:34:18;32.41;29.90;34.92;;
67300;Laerm;57658;51.436;5.980;2023-02-28T00:34:28;31.78;30.25;33.64;;
67300;Laerm;57658;51.436;5.980;2023-02-28T00:34:39;32.25;29.93;37.84;;
67300;Laerm;57658;51.436;5.980;2023-02-28T00:34:49;32.31;30.12;34.45;;
67300;Laerm;57658;51.436;5.980;2023-02-28T00:34:59;30.93;29.41;33.29;;
67300;Laerm;57658;51.436;5.980;2023-02-28T00:35:10;33.40;30.50;36.94;;
67300;Laerm;57658;51.436;5.980;2023-02-28T00:35:20;32.83;30.22;35.51;;
67300;Laerm;57658;51.436;5.980;2023-02-28T00:35:31;32.76;29.77;36.99;;
67300;Laerm;57658;51.436;5.980;2023-02-28T00:35:41;31.55;29.83;33.55;;
67300;Laerm;57658;51.436;5.980;2023-02-28T00:35:51;31.30;29.69;33.00;;
67300;Laerm;57658;51.436;5.980;2023-02-28T00:36:06;31.44;29.46;33.46;;
67300;Laerm;57658;51.436;5.980;2023-02-28T00:36:16;31.15;29.64;33.12;;
67300;Laerm;57658;51.436;5.980;2023-02-28T00:36:26;31.33;29.49;33.87;;
67300;Laerm;57658;51.436;5.980;2023-02-28T00:36:37;31.42;29.66;33.44;;
67300;Laerm;57658;51.436;5.980;2023-02-28T00:36:48;31.47;29.82;33.55;;
67300;Laerm;57658;51.436;5.980;2023-02-28T00:37:01;32.02;29.88;39.30;;
67300;Laerm;57658;51.436;5.980;2023-02-28T00:37:11;30.83;29.20;33.21;;
67300;Laerm;57658;51.436;5.980;2023-02-28T00:37:22;30.63;29.21;32.57;;
67300;Laerm;57658;51.436;5.980;2023-02-28T00:37:32;30.98;29.08;32.76;;
67300;Laerm;57658;51.436;5.980;2023-02-28T00:37:42;32.31;30.13;34.24;;
67300;Laerm;57658;51.436;5.980;2023-02-28T00:37:53;32.18;29.78;34.58;;
67300;Laerm;57658;51.436;5.980;2023-02-28T00:38:03;30.87;29.45;32.90;;
67300;Laerm;57658;51.436;5.980;2023-02-28T00:38:14;30.96;29.33;33.07;;
67300;Laerm;57658;51.436;5.980;2023-02-28T00:38:24;30.97;29.64;33.22;;
67300;Laerm;57658;51.436;5.980;2023-02-28T00:38:35;30.78;29.28;32.58;;
67300;Laerm;57658;51.436;5.980;2023-02-28T00:38:45;30.68;29.03;32.30;;
67300;Laerm;57658;51.436;5.980;2023-02-28T00:38:55;30.68;28.85;32.35;;
67300;Laerm;57658;51.436;5.980;2023-02-28T00:39:05;31.32;28.89;38.76;;
67300;Laerm;57658;51.436;5.980;2023-02-28T00:39:16;30.84;29.10;34.56;;
67300;Laerm;57658;51.436;5.980;2023-02-28T00:39:26;32.14;29.56;40.12;;
67300;Laerm;57658;51.436;5.980;2023-02-28T00:39:37;31.24;29.56;33.22;;
67300;Laerm;57658;51.436;5.980;2023-02-28T00:39:47;32.91;30.93;34.37;;
67300;Laerm;57658;51.436;5.980;2023-02-28T00:39:58;32.22;29.75;35.37;;
67300;Laerm;57658;51.436;5.980;2023-02-28T00:40:08;31.39;29.50;33.72;;
67300;Laerm;57658;51.436;5.980;2023-02-28T00:40:19;31.37;29.65;33.61;;
67300;Laerm;57658;51.436;5.980;2023-02-28T00:40:30;31.87;29.95;37.65;;
67300;Laerm;57658;51.436;5.980;2023-02-28T00:40:40;31.54;29.89;33.51;;
67300;Laerm;57658;51.436;5.980;2023-02-28T00:40:51;31.73;29.84;33.55;;
67300;Laerm;57658;51.436;5.980;2023-02-28T00:41:01;31.11;29.03;33.03;;
67300;Laerm;57658;51.436;5.980;2023-02-28T00:41:14;31.51;29.72;35.09;;
67300;Laerm;57658;51.436;5.980;2023-02-28T00:41:25;31.07;28.91;33.35;;
67300;Laerm;57658;51.436;5.980;2023-02-28T00:41:35;30.95;29.03;34.27;;
67300;Laerm;57658;51.436;5.980;2023-02-28T00:41:45;30.81;28.91;34.71;;
67300;Laerm;57658;51.436;5.980;2023-02-28T00:41:55;30.69;28.91;32.96;;
67300;Laerm;57658;51.436;5.980;2023-02-28T00:42:06;30.57;29.24;32.29;;
67300;Laerm;57658;51.436;5.980;2023-02-28T00:42:17;30.90;28.95;33.68;;
67300;Laerm;57658;51.436;5.980;2023-02-28T00:42:27;30.84;28.71;33.22;;
67300;Laerm;57658;51.436;5.980;2023-02-28T00:42:37;30.90;28.91;33.35;;
67300;Laerm;57658;51.436;5.980;2023-02-28T00:42:48;31.46;29.14;38.60;;
67300;Laerm;57658;51.436;5.980;2023-02-28T00:42:58;31.55;29.15;36.98;;
67300;Laerm;57658;51.436;5.980;2023-02-28T00:43:08;30.99;29.35;33.44;;
67300;Laerm;57658;51.436;5.980;2023-02-28T00:43:18;30.98;29.20;33.47;;
67300;Laerm;57658;51.436;5.980;2023-02-28T00:43:29;30.67;29.24;32.58;;
67300;Laerm;57658;51.436;5.980;2023-02-28T00:43:39;31.01;29.09;34.22;;
67300;Laerm;57658;51.436;5.980;2023-02-28T00:43:50;30.99;29.21;39.35;;
67300;Laerm;57658;51.436;5.980;2023-02-28T00:44:00;30.62;29.05;33.96;;
67300;Laerm;57658;51.436;5.980;2023-02-28T00:44:10;31.06;28.48;37.63;;
67300;Laerm;57658;51.436;5.980;2023-02-28T00:44:21;30.67;28.81;33.11;;
67300;Laerm;57658;51.436;5.980;2023-02-28T00:44:31;30.82;29.26;32.07;;
67300;Laerm;57658;51.436;5.980;2023-02-28T00:44:41;31.04;29.44;33.10;;
67300;Laerm;57658;51.436;5.980;2023-02-28T00:44:52;31.00;29.54;32.99;;
67300;Laerm;57658;51.436;5.980;2023-02-28T00:45:03;31.33;29.46;34.68;;
67300;Laerm;57658;51.436;5.980;2023-02-28T00:45:14;31.83;29.74;35.44;;
67300;Laerm;57658;51.436;5.980;2023-02-28T00:45:25;31.47;29.59;34.05;;
67300;Laerm;57658;51.436;5.980;2023-02-28T00:45:35;31.10;29.57;32.95;;
67300;Laerm;57658;51.436;5.980;2023-02-28T00:45:45;31.85;29.57;34.65;;
67300;Laerm;57658;51.436;5.980;2023-02-28T00:45:56;32.85;30.16;36.20;;
67300;Laerm;57658;51.436;5.980;2023-02-28T00:46:06;32.72;30.42;37.22;;
67300;Laerm;57658;51.436;5.980;2023-02-28T00:46:17;32.81;30.54;34.91;;
67300;Laerm;57658;51.436;5.980;2023-02-28T00:46:27;33.90;32.03;41.45;;
67300;Laerm;57658;51.436;5.980;2023-02-28T00:46:37;32.89;30.46;36.37;;
67300;Laerm;57658;51.436;5.980;2023-02-28T00:46:48;31.73;29.67;33.85;;
67300;Laerm;57658;51.436;5.980;2023-02-28T00:46:59;32.83;30.07;36.87;;
67300;Laerm;57658;51.436;5.980;2023-02-28T00:47:09;32.92;30.25;39.49;;
67300;Laerm;57658;51.436;5.980;2023-02-28T00:47:20;31.33;29.39;33.91;;
67300;Laerm;57658;51.436;5.980;2023-02-28T00:47:30;32.32;30.65;34.96;;
67300;Laerm;57658;51.436;5.980;2023-02-28T00:47:41;33.35;30.51;36.08;;
67300;Laerm;57658;51.436;5.980;2023-02-28T00:47:51;33.79;30.78;36.12;;
67300;Laerm;57658;51.436;5.980;2023-02-28T00:48:01;33.29;31.03;35.57;;
67300;Laerm;57658;51.436;5.980;2023-02-28T00:48:12;32.95;30.36;36.10;;
67300;Laerm;57658;51.436;5.980;2023-02-28T00:48:22;32.20;30.45;34.46;;
67300;Laerm;57658;51.436;5.980;2023-02-28T00:48:32;32.66;31.12;34.49;;
67300;Laerm;57658;51.436;5.980;2023-02-28T00:48:43;32.53;31.07;34.20;;
67300;Laerm;57658;51.436;5.980;2023-02-28T00:48:53;31.56;29.03;37.01;;
67300;Laerm;57658;51.436;5.980;2023-02-28T00:49:03;30.76;29.21;32.67;;
67300;Laerm;57658;51.436;5.980;2023-02-28T00:49:13;74.30;29.80;80.24;;
67300;Laerm;57658;51.436;5.980;2023-02-28T00:49:24;70.51;54.93;80.25;;
67300;Laerm;57658;51.436;5.980;2023-02-28T00:49:34;59.27;54.88;61.29;;
67300;Laerm;57658;51.436;5.980;2023-02-28T00:49:45;59.46;55.17;61.67;;
67300;Laerm;57658;51.436;5.980;2023-02-28T00:49:55;59.34;54.55;61.65;;
67300;Laerm;57658;51.436;5.980;2023-02-28T00:50:05;58.33;54.07;61.14;;
67300;Laerm;57658;51.436;5.980;2023-02-28T00:50:17;75.40;59.60;81.88;;
67300;Laerm;57658;51.436;5.980;2023-02-28T00:50:27;70.53;48.29;81.78;;
67300;Laerm;57658;51.436;5.980;2023-02-28T00:50:37;51.53;47.67;55.78;;
67300;Laerm;57658;51.436;5.980;2023-02-28T00:50:48;49.02;41.90;56.04;;
67300;Laerm;57658;51.436;5.980;2023-02-28T00:51:00;45.63;40.64;50.65;;
67300;Laerm;57658;51.436;5.980;2023-02-28T00:51:10;42.57;37.74;46.74;;
67300;Laerm;57658;51.436;5.980;2023-02-28T00:51:20;41.28;37.09;45.95;;
67300;Laerm;57658;51.436;5.980;2023-02-28T00:51:31;38.24;35.03;42.57;;
67300;Laerm;57658;51.436;5.980;2023-02-28T00:51:41;36.73;32.56;47.88;;
67300;Laerm;57658;51.436;5.980;2023-02-28T00:51:52;34.64;32.41;37.22;;
67300;Laerm;57658;51.436;5.980;2023-02-28T00:52:02;34.07;31.25;38.51;;
67300;Laerm;57658;51.436;5.980;2023-02-28T00:52:13;33.03;30.98;37.40;;
67300;Laerm;57658;51.436;5.980;2023-02-28T00:52:23;34.92;30.23;45.06;;
67300;Laerm;57658;51.436;5.980;2023-02-28T00:52:33;31.92;30.24;34.12;;
67300;Laerm;57658;51.436;5.980;2023-02-28T00:52:44;31.70;29.78;33.70;;
67300;Laerm;57658;51.436;5.980;2023-02-28T00:52:54;32.95;30.21;42.18;;
67300;Laerm;57658;51.436;5.980;2023-02-28T00:53:05;32.18;30.13;35.28;;
67300;Laerm;57658;51.436;5.980;2023-02-28T00:53:15;31.77;29.81;35.28;;
67300;Laerm;57658;51.436;5.980;2023-02-28T00:53:25;31.80;29.97;37.21;;
67300;Laerm;57658;51.436;5.980;2023-02-28T00:53:36;31.21;29.03;33.28;;
67300;Laerm;57658;51.436;5.980;2023-02-28T00:53:46;30.78;29.29;33.51;;
67300;Laerm;57658;51.436;5.980;2023-02-28T00:53:56;30.86;29.28;32.78;;
67300;Laerm;57658;51.436;5.980;2023-02-28T00:54:07;31.04;29.05;33.20;;
67300;Laerm;57658;51.436;5.980;2023-02-28T00:54:17;30.63;29.18;32.44;;
67300;Laerm;57658;51.436;5.980;2023-02-28T00:54:27;32.55;29.43;40.79;;
67300;Laerm;57658;51.436;5.980;2023-02-28T00:54:38;31.66;29.08;34.24;;
67300;Laerm;57658;51.436;5.980;2023-02-28T00:54:48;72.76;30.27;78.87;;
67300;Laerm;57658;51.436;5.980;2023-02-28T00:54:58;71.12;55.36;78.21;;
67300;Laerm;57658;51.436;5.980;2023-02-28T00:55:09;59.77;55.13;62.20;;
67300;Laerm;57658;51.436;5.980;2023-02-28T00:55:19;59.33;53.87;61.85;;
67300;Laerm;57658;51.436;5.980;2023-02-28T00:55:29;58.84;54.59;60.85;;
67300;Laerm;57658;51.436;5.980;2023-02-28T00:55:40;59.42;54.77;61.88;;
67300;Laerm;57658;51.436;5.980;2023-02-28T00:55:50;59.87;55.01;61.93;;
67300;Laerm;57658;51.436;5.980;2023-02-28T00:56:00;59.66;55.17;61.81;;
67300;Laerm;57658;51.436;5.980;2023-02-28T00:56:11;59.11;54.99;61.20;;
67300;Laerm;57658;51.436;5.980;2023-02-28T00:56:21;59.78;55.15;61.91;;
67300;Laerm;57658;51.436;5.980;2023-02-28T00:56:31;60.01;55.20;62.01;;
67300;Laerm;57658;51.436;5.980;2023-02-28T00:56:41;66.13;56.50;75.82;;
67300;Laerm;57658;51.436;5.980;2023-02-28T00:56:52;69.43;55.88;76.24;;
67300;Laerm;57658;51.436;5.980;2023-02-28T00:57:02;59.81;55.24;62.28;;
67300;Laerm;57658;51.436;5.980;2023-02-28T00:57:12;59.98;55.22;62.00;;
67300;Laerm;57658;51.436;5.980;2023-02-28T00:57:23;60.99;55.96;63.11;;
67300;Laerm;57658;51.436;5.980;2023-02-28T00:57:33;73.58;56.03;82.90;;
67300;Laerm;57658;51.436;5.980;2023-02-28T00:57:43;81.36;78.09;85.78;;
67300;Laerm;57658;51.436;5.980;2023-02-28T00:57:54;73.67;57.97;85.32;;
67300;Laerm;57658;51.436;5.980;2023-02-28T00:58:04;56.03;50.65;61.74;;
67300;Laerm;57658;51.436;5.980;2023-02-28T00:58:14;50.94;47.15;56.42;;
67300;Laerm;57658;51.436;5.980;2023-02-28T00:58:25;47.86;42.01;53.50;;
67300;Laerm;57658;51.436;5.980;2023-02-28T00:58:35;44.45;40.54;47.71;;
67300;Laerm;57658;51.436;5.980;2023-02-28T00:58:45;42.64;38.12;50.39;;
67300;Laerm;57658;51.436;5.980;2023-02-28T00:58:55;41.55;36.63;46.64;;
67300;Laerm;57658;51.436;5.980;2023-02-28T00:59:06;39.65;35.07;44.55;;
67300;Laerm;57658;51.436;5.980;2023-02-28T00:59:16;38.50;34.90;43.44;;
67300;Laerm;57658;51.436;5.980;2023-02-28T00:59:27;36.22;32.63;41.07;;